UAL1576 KTPA-KIAD
Flight info
| Callsign | UAL1576 |
|---|---|
| Flight time | 1h 45m |
| Altitude | 33000 |
| Route | KTPA/19R BAYPO2 CAMJO Q99 OGRAE DCT BZNGA DCT DORRN CAVLR6 KIAD/01R |
| Aircraft | B739/M-V/N |
Departure
| Time | 2026-04-30 19:27 |
|---|---|
| Airport | Tampa International Airport (KTPA) |
Arrival
| Time | 2026-04-30 21:12 |
|---|---|
| Airport | Washington Dulles International Airport (KIAD) |
| Time | Latitude | Longitude | Altitude | Speed | Heading |
|---|---|---|---|---|---|
| 2026-04-30 19:04 | 27.97449 | -82.53196 | 42 ft | 0 kts | 9° |
| 2026-04-30 19:18 | 27.97441 | -82.53197 | 39 ft | 4 kts | 9° |
| 2026-04-30 19:19 | 27.97417 | -82.53202 | 41 ft | 1 kts | 9° |
| 2026-04-30 19:19 | 27.97394 | -82.53208 | 41 ft | 4 kts | 34° |
| 2026-04-30 19:19 | 27.97385 | -82.53251 | 39 ft | 1 kts | 92° |
| 2026-04-30 19:22 | 27.97384 | -82.53220 | 42 ft | 10 kts | 92° |
| 2026-04-30 19:23 | 27.97466 | -82.52989 | 41 ft | 14 kts | 1° |
| 2026-04-30 19:24 | 27.97753 | -82.52979 | 41 ft | 27 kts | 1° |
| 2026-04-30 19:24 | 27.97953 | -82.52972 | 41 ft | 29 kts | 1° |
| 2026-04-30 19:24 | 27.98336 | -82.52959 | 40 ft | 26 kts | 2° |
| 2026-04-30 19:25 | 27.98702 | -82.52931 | 39 ft | 2 kts | 45° |
| 2026-04-30 19:26 | 27.98712 | -82.52873 | 36 ft | 7 kts | 86° |
| 2026-04-30 19:26 | 27.98624 | -82.52826 | 36 ft | 23 kts | 182° |
| 2026-04-30 19:26 | 27.98200 | -82.52840 | 37 ft | 98 kts | 182° |
| 2026-04-30 19:27 | 27.96140 | -82.52912 | 571 ft | 167 kts | 185° |
| 2026-04-30 19:27 | 27.93805 | -82.53697 | 1874 ft | 181 kts | 214° |
| 2026-04-30 19:28 | 27.92748 | -82.54530 | 2386 ft | 193 kts | 227° |
| 2026-04-30 19:28 | 27.90941 | -82.56850 | 3262 ft | 206 kts | 253° |
| 2026-04-30 19:29 | 27.92091 | -82.59837 | 3775 ft | 245 kts | 324° |
| 2026-04-30 19:29 | 27.93746 | -82.60556 | 4144 ft | 265 kts | 348° |
| 2026-04-30 19:30 | 27.99397 | -82.60300 | 6336 ft | 278 kts | 1° |
| 2026-04-30 19:30 | 28.03275 | -82.59964 | 7804 ft | 283 kts | 0° |
| 2026-04-30 19:31 | 28.06588 | -82.59635 | 9013 ft | 287 kts | 359° |
| 2026-04-30 19:31 | 28.08581 | -82.59469 | 9756 ft | 288 kts | 358° |
| 2026-04-30 19:31 | 28.12726 | -82.59204 | 10503 ft | 317 kts | 357° |
| 2026-04-30 19:32 | 28.15008 | -82.59086 | 10659 ft | 337 kts | 357° |
| 2026-04-30 19:32 | 28.17389 | -82.58969 | 10801 ft | 356 kts | 358° |
| 2026-04-30 19:32 | 28.19917 | -82.58846 | 11070 ft | 368 kts | 358° |
| 2026-04-30 19:32 | 28.22496 | -82.58721 | 11558 ft | 372 kts | 358° |
| 2026-04-30 19:33 | 28.25090 | -82.58596 | 12132 ft | 374 kts | 358° |
| 2026-04-30 19:33 | 28.27711 | -82.58472 | 12713 ft | 376 kts | 358° |
| 2026-04-30 19:33 | 28.30338 | -82.58350 | 13264 ft | 379 kts | 358° |
| 2026-04-30 19:33 | 28.32951 | -82.58230 | 13779 ft | 382 kts | 358° |
| 2026-04-30 19:34 | 28.35628 | -82.58107 | 14283 ft | 384 kts | 358° |
| 2026-04-30 19:34 | 28.38308 | -82.58059 | 14773 ft | 384 kts | 355° |
| 2026-04-30 19:34 | 28.43648 | -82.58206 | 15733 ft | 388 kts | 353° |
| 2026-04-30 19:35 | 28.46364 | -82.58300 | 16215 ft | 390 kts | 353° |
| 2026-04-30 19:35 | 28.49085 | -82.58386 | 16684 ft | 392 kts | 353° |
| 2026-04-30 19:35 | 28.51823 | -82.58464 | 17150 ft | 394 kts | 354° |
| 2026-04-30 19:35 | 28.54579 | -82.58536 | 17606 ft | 396 kts | 354° |
| 2026-04-30 19:36 | 28.57310 | -82.58605 | 18051 ft | 398 kts | 354° |
| 2026-04-30 19:36 | 28.60129 | -82.58675 | 18452 ft | 400 kts | 354° |
| 2026-04-30 19:36 | 28.65704 | -82.58815 | 19127 ft | 406 kts | 353° |
| 2026-04-30 19:37 | 28.68523 | -82.58981 | 19456 ft | 405 kts | 349° |
| 2026-04-30 19:37 | 28.71331 | -82.59328 | 19791 ft | 406 kts | 348° |
| 2026-04-30 19:37 | 28.74151 | -82.59739 | 20117 ft | 408 kts | 347° |
| 2026-04-30 19:37 | 28.76975 | -82.60167 | 20431 ft | 411 kts | 347° |
| 2026-04-30 19:38 | 28.79820 | -82.60594 | 20749 ft | 413 kts | 347° |
| 2026-04-30 19:38 | 28.82684 | -82.61014 | 21055 ft | 415 kts | 347° |
| 2026-04-30 19:38 | 28.85554 | -82.61426 | 21348 ft | 418 kts | 347° |
| 2026-04-30 19:38 | 28.88451 | -82.61837 | 21631 ft | 420 kts | 347° |
| 2026-04-30 19:39 | 28.91357 | -82.62244 | 21915 ft | 422 kts | 347° |
| 2026-04-30 19:39 | 28.94281 | -82.62653 | 22192 ft | 424 kts | 347° |
| 2026-04-30 19:39 | 28.97214 | -82.63063 | 22459 ft | 425 kts | 347° |
| 2026-04-30 19:39 | 29.00163 | -82.63475 | 22721 ft | 427 kts | 347° |
| 2026-04-30 19:40 | 29.03119 | -82.63888 | 22967 ft | 429 kts | 347° |
| 2026-04-30 19:40 | 29.06089 | -82.64303 | 23265 ft | 429 kts | 347° |
| 2026-04-30 19:40 | 29.09055 | -82.64718 | 23559 ft | 430 kts | 347° |
| 2026-04-30 19:40 | 29.12038 | -82.65137 | 23706 ft | 433 kts | 347° |
| 2026-04-30 19:41 | 29.15025 | -82.65556 | 23912 ft | 433 kts | 347° |
| 2026-04-30 19:41 | 29.18015 | -82.65976 | 24176 ft | 433 kts | 347° |
| 2026-04-30 19:41 | 29.21013 | -82.66396 | 24423 ft | 433 kts | 347° |
| 2026-04-30 19:41 | 29.24004 | -82.66817 | 24594 ft | 435 kts | 347° |
| 2026-04-30 19:42 | 29.27026 | -82.67243 | 24711 ft | 438 kts | 347° |
| 2026-04-30 19:42 | 29.30056 | -82.67670 | 24928 ft | 439 kts | 347° |
| 2026-04-30 19:42 | 29.33097 | -82.68098 | 25122 ft | 440 kts | 347° |
| 2026-04-30 19:42 | 29.36145 | -82.68527 | 25282 ft | 442 kts | 347° |
| 2026-04-30 19:43 | 29.39192 | -82.68957 | 25528 ft | 441 kts | 347° |
| 2026-04-30 19:43 | 29.42247 | -82.69352 | 25720 ft | 444 kts | 349° |
| 2026-04-30 19:43 | 29.45320 | -82.69449 | 25886 ft | 449 kts | 353° |
| 2026-04-30 19:44 | 29.51617 | -82.69358 | 26201 ft | 454 kts | 354° |
| 2026-04-30 19:44 | 29.54783 | -82.69294 | 26361 ft | 455 kts | 354° |
| 2026-04-30 19:44 | 29.57954 | -82.69243 | 26564 ft | 455 kts | 354° |
| 2026-04-30 19:44 | 29.61125 | -82.69206 | 26737 ft | 456 kts | 354° |
| 2026-04-30 19:45 | 29.64307 | -82.69180 | 26881 ft | 458 kts | 354° |
| 2026-04-30 19:45 | 29.67501 | -82.69159 | 27046 ft | 459 kts | 354° |
| 2026-04-30 19:45 | 29.70704 | -82.69140 | 27225 ft | 460 kts | 353° |
| 2026-04-30 19:45 | 29.73916 | -82.69122 | 27400 ft | 461 kts | 353° |
| 2026-04-30 19:46 | 29.77131 | -82.69103 | 27572 ft | 462 kts | 353° |
| 2026-04-30 19:46 | 29.80336 | -82.69082 | 27830 ft | 461 kts | 353° |
| 2026-04-30 19:46 | 29.83588 | -82.69061 | 28134 ft | 459 kts | 353° |
| 2026-04-30 19:46 | 29.86779 | -82.69039 | 28430 ft | 458 kts | 353° |
| 2026-04-30 19:47 | 29.89926 | -82.69020 | 28693 ft | 457 kts | 353° |
| 2026-04-30 19:47 | 29.92075 | -82.69007 | 28894 ft | 457 kts | 353° |
| 2026-04-30 19:47 | 29.96286 | -82.68980 | 29344 ft | 455 kts | 353° |
| 2026-04-30 19:47 | 29.99446 | -82.68960 | 29721 ft | 454 kts | 353° |
| 2026-04-30 19:48 | 30.02598 | -82.68940 | 30056 ft | 452 kts | 353° |
| 2026-04-30 19:48 | 30.05739 | -82.68920 | 30363 ft | 451 kts | 353° |
| 2026-04-30 19:48 | 30.08872 | -82.68899 | 30700 ft | 448 kts | 353° |
| 2026-04-30 19:48 | 30.11985 | -82.68879 | 31056 ft | 446 kts | 352° |
| 2026-04-30 19:49 | 30.15076 | -82.68859 | 31383 ft | 444 kts | 352° |
| 2026-04-30 19:49 | 30.21231 | -82.68821 | 32068 ft | 440 kts | 352° |
| 2026-04-30 19:49 | 30.24330 | -82.68802 | 32422 ft | 438 kts | 352° |
| 2026-04-30 19:50 | 30.27368 | -82.68783 | 32739 ft | 437 kts | 352° |
| 2026-04-30 19:50 | 30.30369 | -82.68765 | 32929 ft | 437 kts | 352° |
| 2026-04-30 19:50 | 30.36470 | -82.68730 | 32919 ft | 437 kts | 352° |
| 2026-04-30 19:51 | 30.42533 | -82.68691 | 32938 ft | 435 kts | 351° |
| 2026-04-30 19:51 | 30.48580 | -82.68653 | 32960 ft | 433 kts | 351° |
| 2026-04-30 19:52 | 30.54695 | -82.67950 | 32980 ft | 444 kts | 1° |
| 2026-04-30 19:52 | 30.60794 | -82.66597 | 32966 ft | 445 kts | 1° |
| 2026-04-30 19:53 | 30.66854 | -82.65253 | 32971 ft | 445 kts | 1° |
| 2026-04-30 19:53 | 30.72956 | -82.63937 | 32953 ft | 446 kts | 1° |
| 2026-04-30 19:54 | 30.79074 | -82.62631 | 32945 ft | 446 kts | 0° |
| 2026-04-30 19:54 | 30.85199 | -82.61322 | 32933 ft | 447 kts | 0° |
| 2026-04-30 19:55 | 30.91298 | -82.60016 | 32923 ft | 448 kts | 0° |
| 2026-04-30 19:55 | 30.97439 | -82.58698 | 32920 ft | 448 kts | 0° |
| 2026-04-30 19:56 | 31.03590 | -82.57377 | 32916 ft | 449 kts | 0° |
| 2026-04-30 19:56 | 31.09717 | -82.55657 | 32903 ft | 463 kts | 11° |
| 2026-04-30 19:57 | 31.15597 | -82.52277 | 32883 ft | 474 kts | 18° |
| 2026-04-30 19:57 | 31.21412 | -82.48642 | 32869 ft | 473 kts | 18° |
| 2026-04-30 19:58 | 31.27223 | -82.45046 | 32873 ft | 472 kts | 17° |
| 2026-04-30 19:58 | 31.33041 | -82.41491 | 32871 ft | 471 kts | 17° |
| 2026-04-30 19:59 | 31.38856 | -82.37950 | 32877 ft | 470 kts | 17° |
| 2026-04-30 20:00 | 31.47536 | -82.32655 | 32889 ft | 470 kts | 17° |
| 2026-04-30 20:00 | 31.53332 | -82.29111 | 32887 ft | 469 kts | 17° |
| 2026-04-30 20:01 | 31.62017 | -82.23791 | 32878 ft | 469 kts | 17° |
| 2026-04-30 20:01 | 31.67810 | -82.20236 | 32882 ft | 469 kts | 17° |
| 2026-04-30 20:02 | 31.76491 | -82.14899 | 32886 ft | 469 kts | 17° |
| 2026-04-30 20:03 | 31.85165 | -82.09554 | 32881 ft | 468 kts | 17° |
| 2026-04-30 20:03 | 31.90945 | -82.05988 | 32940 ft | 471 kts | 17° |
| 2026-04-30 20:04 | 31.92871 | -82.04800 | 33068 ft | 472 kts | 17° |
| 2026-04-30 20:04 | 31.95789 | -82.02995 | 33388 ft | 470 kts | 17° |
| 2026-04-30 20:04 | 31.98683 | -82.01201 | 33731 ft | 468 kts | 17° |
| 2026-04-30 20:05 | 32.04445 | -81.97630 | 34178 ft | 467 kts | 16° |
| 2026-04-30 20:05 | 32.07322 | -81.95848 | 34388 ft | 466 kts | 16° |
| 2026-04-30 20:05 | 32.13047 | -81.92293 | 34850 ft | 463 kts | 16° |
| 2026-04-30 20:06 | 32.18791 | -81.88816 | 34866 ft | 463 kts | 15° |
| 2026-04-30 20:06 | 32.24553 | -81.85459 | 34862 ft | 459 kts | 14° |
| 2026-04-30 20:07 | 32.30239 | -81.82148 | 34867 ft | 457 kts | 14° |
| 2026-04-30 20:08 | 32.38795 | -81.77128 | 34871 ft | 454 kts | 14° |
| 2026-04-30 20:08 | 32.44404 | -81.73824 | 34868 ft | 453 kts | 14° |
| 2026-04-30 20:09 | 32.50081 | -81.70474 | 34873 ft | 453 kts | 14° |
| 2026-04-30 20:09 | 32.58562 | -81.65463 | 34892 ft | 454 kts | 14° |
| 2026-04-30 20:10 | 32.67027 | -81.60448 | 34889 ft | 455 kts | 14° |
| 2026-04-30 20:11 | 32.75549 | -81.55388 | 34887 ft | 457 kts | 14° |
| 2026-04-30 20:11 | 32.81238 | -81.52004 | 34888 ft | 457 kts | 14° |
| 2026-04-30 20:12 | 32.89783 | -81.46912 | 34882 ft | 458 kts | 14° |
| 2026-04-30 20:13 | 32.95479 | -81.43510 | 34880 ft | 457 kts | 14° |
| 2026-04-30 20:13 | 33.01180 | -81.40101 | 34878 ft | 457 kts | 14° |
| 2026-04-30 20:14 | 33.06853 | -81.36705 | 34880 ft | 457 kts | 14° |
| 2026-04-30 20:14 | 33.12514 | -81.33312 | 34890 ft | 458 kts | 14° |
| 2026-04-30 20:15 | 33.18223 | -81.29885 | 34892 ft | 458 kts | 14° |
| 2026-04-30 20:15 | 33.23900 | -81.26471 | 34894 ft | 459 kts | 14° |
| 2026-04-30 20:16 | 33.29630 | -81.23021 | 34906 ft | 461 kts | 14° |
| 2026-04-30 20:16 | 33.35376 | -81.19559 | 34902 ft | 464 kts | 14° |
| 2026-04-30 20:17 | 33.41161 | -81.16065 | 34894 ft | 466 kts | 14° |
| 2026-04-30 20:17 | 33.46925 | -81.12573 | 34884 ft | 466 kts | 14° |
| 2026-04-30 20:18 | 33.52699 | -81.09073 | 34886 ft | 465 kts | 14° |
| 2026-04-30 20:18 | 33.58496 | -81.05555 | 34886 ft | 465 kts | 13° |
| 2026-04-30 20:19 | 33.64241 | -81.02064 | 34886 ft | 464 kts | 13° |
| 2026-04-30 20:19 | 33.70023 | -80.98545 | 34885 ft | 464 kts | 13° |
| 2026-04-30 20:20 | 33.75745 | -80.95057 | 34876 ft | 463 kts | 13° |
| 2026-04-30 20:20 | 33.81512 | -80.91536 | 34890 ft | 462 kts | 13° |
| 2026-04-30 20:21 | 33.87133 | -80.87685 | 34881 ft | 482 kts | 24° |
| 2026-04-30 20:21 | 33.92435 | -80.82640 | 34883 ft | 487 kts | 26° |
| 2026-04-30 20:22 | 33.97702 | -80.77581 | 34880 ft | 485 kts | 25° |
| 2026-04-30 20:22 | 34.03034 | -80.72586 | 34881 ft | 484 kts | 25° |
| 2026-04-30 20:23 | 34.08358 | -80.67584 | 34893 ft | 485 kts | 25° |
| 2026-04-30 20:23 | 34.13682 | -80.62563 | 34916 ft | 485 kts | 25° |
| 2026-04-30 20:24 | 34.18971 | -80.57567 | 34923 ft | 485 kts | 25° |
| 2026-04-30 20:24 | 34.24288 | -80.52538 | 34929 ft | 485 kts | 25° |
| 2026-04-30 20:25 | 34.32284 | -80.45095 | 34919 ft | 484 kts | 24° |
| 2026-04-30 20:26 | 34.40361 | -80.37678 | 34903 ft | 485 kts | 24° |
| 2026-04-30 20:26 | 34.48385 | -80.30259 | 34908 ft | 485 kts | 24° |
| 2026-04-30 20:27 | 34.59134 | -80.20282 | 34911 ft | 487 kts | 24° |
| 2026-04-30 20:28 | 34.69922 | -80.10237 | 34904 ft | 489 kts | 24° |
| 2026-04-30 20:30 | 34.83487 | -79.97653 | 34911 ft | 490 kts | 22° |
| 2026-04-30 20:31 | 35.00058 | -79.83098 | 34907 ft | 492 kts | 22° |
| 2026-04-30 20:32 | 35.13897 | -79.70803 | 34882 ft | 493 kts | 22° |
| 2026-04-30 20:33 | 35.22278 | -79.63525 | 34902 ft | 490 kts | 21° |
| 2026-04-30 20:34 | 35.30660 | -79.56411 | 34914 ft | 490 kts | 21° |
| 2026-04-30 20:35 | 35.39033 | -79.49241 | 34911 ft | 490 kts | 21° |
| 2026-04-30 20:35 | 35.47385 | -79.42056 | 34913 ft | 489 kts | 21° |
| 2026-04-30 20:36 | 35.52973 | -79.37239 | 34903 ft | 489 kts | 21° |
| 2026-04-30 20:37 | 35.61318 | -79.30032 | 34912 ft | 489 kts | 21° |
| 2026-04-30 20:37 | 35.66866 | -79.25229 | 34913 ft | 489 kts | 21° |
| 2026-04-30 20:38 | 35.72445 | -79.20393 | 34913 ft | 490 kts | 21° |
| 2026-04-30 20:38 | 35.77934 | -79.15312 | 34912 ft | 497 kts | 26° |
| 2026-04-30 20:39 | 35.85915 | -79.07059 | 34896 ft | 499 kts | 27° |
| 2026-04-30 20:40 | 35.93886 | -78.98823 | 34901 ft | 498 kts | 27° |
| 2026-04-30 20:40 | 35.99196 | -78.93381 | 34901 ft | 498 kts | 27° |
| 2026-04-30 20:41 | 36.07212 | -78.85153 | 34900 ft | 498 kts | 27° |
| 2026-04-30 20:41 | 36.12550 | -78.79657 | 34915 ft | 498 kts | 27° |
| 2026-04-30 20:42 | 36.17854 | -78.74185 | 34913 ft | 498 kts | 27° |
| 2026-04-30 20:43 | 36.25829 | -78.65938 | 34911 ft | 499 kts | 27° |
| 2026-04-30 20:43 | 36.31179 | -78.60392 | 34906 ft | 499 kts | 27° |
| 2026-04-30 20:44 | 36.39147 | -78.52117 | 34906 ft | 499 kts | 27° |
| 2026-04-30 20:44 | 36.43851 | -78.48267 | 34885 ft | 472 kts | 11° |
| 2026-04-30 20:45 | 36.49847 | -78.45092 | 34903 ft | 466 kts | 9° |
| 2026-04-30 20:45 | 36.56799 | -78.41502 | 34894 ft | 468 kts | 9° |
| 2026-04-30 20:46 | 36.67814 | -78.35656 | 34898 ft | 471 kts | 10° |
| 2026-04-30 20:47 | 36.76873 | -78.30793 | 34906 ft | 473 kts | 10° |
| 2026-04-30 20:48 | 36.85956 | -78.25908 | 34887 ft | 473 kts | 10° |
| 2026-04-30 20:48 | 36.91993 | -78.22652 | 34879 ft | 471 kts | 11° |
| 2026-04-30 20:49 | 36.98030 | -78.19396 | 34026 ft | 477 kts | 11° |
| 2026-04-30 20:49 | 37.01075 | -78.17757 | 33332 ft | 476 kts | 11° |
| 2026-04-30 20:50 | 37.07068 | -78.14505 | 32230 ft | 466 kts | 12° |
| 2026-04-30 20:50 | 37.10032 | -78.12893 | 31718 ft | 461 kts | 12° |
| 2026-04-30 20:50 | 37.12967 | -78.11298 | 31204 ft | 457 kts | 12° |
| 2026-04-30 20:50 | 37.15878 | -78.09718 | 30708 ft | 453 kts | 12° |
| 2026-04-30 20:51 | 37.18763 | -78.08152 | 30218 ft | 449 kts | 13° |
| 2026-04-30 20:51 | 37.24451 | -78.05063 | 29130 ft | 441 kts | 13° |
| 2026-04-30 20:51 | 37.27254 | -78.03537 | 28650 ft | 436 kts | 13° |
| 2026-04-30 20:52 | 37.30023 | -78.02028 | 28154 ft | 431 kts | 14° |
| 2026-04-30 20:52 | 37.32762 | -78.00535 | 27665 ft | 427 kts | 14° |
| 2026-04-30 20:52 | 37.38162 | -77.97589 | 26710 ft | 419 kts | 14° |
| 2026-04-30 20:53 | 37.40833 | -77.96130 | 26242 ft | 416 kts | 14° |
| 2026-04-30 20:53 | 37.43484 | -77.94682 | 25780 ft | 413 kts | 14° |
| 2026-04-30 20:53 | 37.46106 | -77.93247 | 25328 ft | 410 kts | 15° |
| 2026-04-30 20:54 | 37.51308 | -77.90398 | 24431 ft | 405 kts | 15° |
| 2026-04-30 20:54 | 37.53884 | -77.88982 | 23983 ft | 403 kts | 16° |
| 2026-04-30 20:54 | 37.56444 | -77.87538 | 23539 ft | 401 kts | 17° |
| 2026-04-30 20:55 | 37.61515 | -77.84641 | 22521 ft | 397 kts | 17° |
| 2026-04-30 20:55 | 37.63994 | -77.83227 | 22057 ft | 394 kts | 17° |
| 2026-04-30 20:55 | 37.66523 | -77.81794 | 21552 ft | 393 kts | 16° |
| 2026-04-30 20:56 | 37.71532 | -77.79021 | 20488 ft | 393 kts | 16° |
| 2026-04-30 20:56 | 37.74043 | -77.77635 | 19959 ft | 394 kts | 16° |
| 2026-04-30 20:56 | 37.79065 | -77.74853 | 18906 ft | 394 kts | 17° |
| 2026-04-30 20:57 | 37.81573 | -77.73458 | 18376 ft | 394 kts | 17° |
| 2026-04-30 20:57 | 37.84055 | -77.72078 | 17846 ft | 394 kts | 17° |
| 2026-04-30 20:57 | 37.86530 | -77.70695 | 17554 ft | 384 kts | 17° |
| 2026-04-30 20:58 | 37.91476 | -77.67940 | 16312 ft | 387 kts | 17° |
| 2026-04-30 20:58 | 37.93945 | -77.66563 | 15786 ft | 387 kts | 17° |
| 2026-04-30 20:58 | 37.96403 | -77.65189 | 15264 ft | 386 kts | 17° |
| 2026-04-30 20:58 | 37.98860 | -77.63815 | 14748 ft | 385 kts | 17° |
| 2026-04-30 20:59 | 38.03750 | -77.61078 | 13708 ft | 383 kts | 17° |
| 2026-04-30 20:59 | 38.06175 | -77.59710 | 13219 ft | 380 kts | 19° |
| 2026-04-30 21:00 | 38.10831 | -77.56742 | 12405 ft | 359 kts | 21° |
| 2026-04-30 21:00 | 38.15206 | -77.53924 | 11194 ft | 350 kts | 21° |
| 2026-04-30 21:01 | 38.19419 | -77.51235 | 10548 ft | 326 kts | 22° |
| 2026-04-30 21:01 | 38.21411 | -77.49960 | 10297 ft | 314 kts | 22° |
| 2026-04-30 21:01 | 38.25230 | -77.47750 | 9894 ft | 284 kts | 10° |
| 2026-04-30 21:02 | 38.27119 | -77.47320 | 9645 ft | 270 kts | 0° |
| 2026-04-30 21:02 | 38.28985 | -77.47142 | 9456 ft | 268 kts | 358° |
| 2026-04-30 21:02 | 38.30856 | -77.47008 | 9248 ft | 273 kts | 358° |
| 2026-04-30 21:02 | 38.32763 | -77.46867 | 9064 ft | 275 kts | 358° |
| 2026-04-30 21:03 | 38.34678 | -77.46712 | 8869 ft | 276 kts | 359° |
| 2026-04-30 21:03 | 38.36586 | -77.46545 | 8626 ft | 272 kts | 359° |
| 2026-04-30 21:03 | 38.38456 | -77.46373 | 8429 ft | 267 kts | 359° |
| 2026-04-30 21:03 | 38.40299 | -77.46198 | 8234 ft | 263 kts | 359° |
| 2026-04-30 21:04 | 38.42120 | -77.46024 | 8059 ft | 262 kts | 359° |
| 2026-04-30 21:04 | 38.43931 | -77.45848 | 7869 ft | 260 kts | 360° |
| 2026-04-30 21:04 | 38.47537 | -77.45497 | 7492 ft | 259 kts | 0° |
| 2026-04-30 21:05 | 38.49335 | -77.45319 | 7300 ft | 258 kts | 0° |
| 2026-04-30 21:05 | 38.51120 | -77.45143 | 7118 ft | 257 kts | 0° |
| 2026-04-30 21:05 | 38.52902 | -77.44966 | 6956 ft | 256 kts | 0° |
| 2026-04-30 21:05 | 38.54684 | -77.44790 | 6750 ft | 257 kts | 0° |
| 2026-04-30 21:06 | 38.56459 | -77.44614 | 6563 ft | 255 kts | 0° |
| 2026-04-30 21:06 | 38.58226 | -77.44439 | 6377 ft | 254 kts | 0° |
| 2026-04-30 21:06 | 38.59984 | -77.44265 | 6198 ft | 253 kts | 0° |
| 2026-04-30 21:06 | 38.61742 | -77.44118 | 5986 ft | 253 kts | 359° |
| 2026-04-30 21:07 | 38.63508 | -77.44064 | 5700 ft | 253 kts | 357° |
| 2026-04-30 21:07 | 38.65273 | -77.44044 | 5426 ft | 254 kts | 357° |
| 2026-04-30 21:07 | 38.67043 | -77.44024 | 5153 ft | 255 kts | 356° |
| 2026-04-30 21:07 | 38.68824 | -77.43997 | 4856 ft | 256 kts | 357° |
| 2026-04-30 21:08 | 38.70599 | -77.43967 | 4565 ft | 255 kts | 357° |
| 2026-04-30 21:08 | 38.72368 | -77.43942 | 4222 ft | 251 kts | 357° |
| 2026-04-30 21:08 | 38.74093 | -77.43917 | 3925 ft | 244 kts | 357° |
| 2026-04-30 21:08 | 38.75754 | -77.43889 | 3607 ft | 233 kts | 357° |
| 2026-04-30 21:09 | 38.77324 | -77.43867 | 3309 ft | 225 kts | 356° |
| 2026-04-30 21:09 | 38.78864 | -77.43844 | 2981 ft | 217 kts | 356° |
| 2026-04-30 21:09 | 38.80330 | -77.43822 | 2713 ft | 205 kts | 356° |
| 2026-04-30 21:09 | 38.81723 | -77.43804 | 2449 ft | 197 kts | 355° |
| 2026-04-30 21:10 | 38.83049 | -77.43781 | 2205 ft | 184 kts | 355° |
| 2026-04-30 21:10 | 38.84297 | -77.43763 | 1966 ft | 174 kts | 354° |
| 2026-04-30 21:10 | 38.85466 | -77.43745 | 1743 ft | 159 kts | 353° |
| 2026-04-30 21:10 | 38.86518 | -77.43729 | 1546 ft | 146 kts | 355° |
| 2026-04-30 21:11 | 38.87506 | -77.43716 | 1388 ft | 141 kts | 355° |
| 2026-04-30 21:11 | 38.88513 | -77.43689 | 1151 ft | 145 kts | 356° |
| 2026-04-30 21:11 | 38.89527 | -77.43674 | 935 ft | 147 kts | 354° |
| 2026-04-30 21:11 | 38.90552 | -77.43660 | 756 ft | 147 kts | 355° |
| 2026-04-30 21:12 | 38.91567 | -77.43648 | 517 ft | 148 kts | 356° |
| 2026-04-30 21:12 | 38.92594 | -77.43638 | 312 ft | 140 kts | 355° |
| 2026-04-30 21:12 | 38.93454 | -77.43635 | 299 ft | 101 kts | 2° |
| 2026-04-30 21:12 | 38.93946 | -77.43624 | 302 ft | 48 kts | 1° |
| 2026-04-30 21:13 | 38.94249 | -77.43619 | 301 ft | 36 kts | 358° |
| 2026-04-30 21:13 | 38.94459 | -77.43687 | 303 ft | 29 kts | 332° |
| 2026-04-30 21:13 | 38.94589 | -77.43778 | 300 ft | 16 kts | 331° |
| 2026-04-30 21:13 | 38.94607 | -77.43791 | 302 ft | 0 kts | 331° |
| 2026-04-30 21:14 | 38.94608 | -77.43791 | 302 ft | 1 kts | 331° |
| 2026-04-30 21:14 | 38.94621 | -77.43803 | 299 ft | 4 kts | 323° |
| 2026-04-30 21:15 | 38.94643 | -77.43857 | 299 ft | 11 kts | 276° |
| 2026-04-30 21:15 | 38.94649 | -77.43983 | 299 ft | 17 kts | 275° |
| 2026-04-30 21:15 | 38.94653 | -77.44133 | 303 ft | 17 kts | 270° |
| 2026-04-30 21:15 | 38.94653 | -77.44279 | 299 ft | 16 kts | 269° |
| 2026-04-30 21:16 | 38.94654 | -77.44419 | 303 ft | 15 kts | 271° |
| 2026-04-30 21:16 | 38.94655 | -77.44521 | 302 ft | 6 kts | 271° |
| 2026-04-30 21:16 | 38.94643 | -77.44573 | 302 ft | 6 kts | 216° |
| 2026-04-30 21:16 | 38.94600 | -77.44579 | 301 ft | 6 kts | 178° |
| 2026-04-30 21:17 | 38.94579 | -77.44579 | 299 ft | 0 kts | 180° |